Time;durP1;ratioP1;P1;durP2;ratioP2;P2;SDS_P1;SDS_P2;PMS_P1;PMS_P2;Temp;Humidity;BMP_temperature;BMP_pressure;BME280_temperature;BME280_humidity;BME280_pressure;Samples;Min_cycle;Max_cycle;Signal;HPM_P1;HPM_P2
2022/01/23 00:00:58;;;;;;;35.35;15.73;;;;;;;;;;5090765;28;20056;-78
2022/01/23 00:03:25;;;;;;;37.67;16.77;;;;;;;;;;5071787;28;20048;-77
2022/01/23 00:05:52;;;;;;;39.05;17.23;;;;;;;;;;5086023;28;20079;-77
2022/01/23 00:08:21;;;;;;;35.35;16.45;;;;;;;;;;5086700;28;20584;-77
2022/01/23 00:10:48;;;;;;;36.97;16.23;;;;;;;;;;5090327;28;20098;-78
2022/01/23 00:17:12;;;;;;;40.47;17.90;;;;;;;;;;5104772;28;20084;-77
2022/01/23 00:18:48;;;;;;;38.72;20.20;;;;;;;;;;5106971;28;20094;-77
2022/01/23 00:21:15;;;;;;;35.83;19.20;;;;;;;;;;5089631;28;20048;-77
2022/01/23 00:31:39;;;;;;;31.95;14.93;;;;;;;;;;5108673;27;20052;-78
2022/01/23 00:34:06;;;;;;;30.90;15.00;;;;;;;;;;5089164;28;20083;-77
2022/01/23 00:36:32;;;;;;;32.30;15.27;;;;;;;;;;5107435;28;20106;-77
2022/01/23 00:38:59;;;;;;;38.60;15.90;;;;;;;;;;5107707;28;20048;-77
2022/01/23 00:41:25;;;;;;;37.00;17.08;;;;;;;;;;5098230;28;20106;-77
2022/01/23 00:43:53;;;;;;;35.15;15.35;;;;;;;;;;5088550;28;20135;-77
2022/01/23 00:51:23;;;;;;;32.83;15.57;;;;;;;;;;5107747;28;20076;-77
2022/01/23 00:53:57;;;;;;;34.45;14.77;;;;;;;;;;5099671;28;20056;-77
2022/01/23 00:56:23;;;;;;;31.85;14.85;;;;;;;;;;5094154;28;20148;-77
2022/01/23 00:58:50;;;;;;;29.30;14.52;;;;;;;;;;5104990;27;20111;-77
2022/01/23 01:01:17;;;;;;;30.88;14.40;;;;;;;;;;5088159;28;20142;-77
2022/01/23 01:03:44;;;;;;;32.75;15.00;;;;;;;;;;5091365;28;20132;-77
2022/01/23 01:06:10;;;;;;;31.20;14.20;;;;;;;;;;5099003;28;20110;-77
2022/01/23 01:08:37;;;;;;;30.10;14.20;;;;;;;;;;5089564;28;20076;-77
2022/01/23 01:33:07;;;;;;;29.27;13.90;;;;;;;;;;5102578;28;20056;-77
2022/01/23 01:35:40;;;;;;;27.73;13.10;;;;;;;;;;5091711;27;20052;-77
2022/01/23 01:38:07;;;;;;;30.67;14.15;;;;;;;;;;5093240;28;20091;-77
2022/01/23 01:40:33;;;;;;;28.10;12.95;;;;;;;;;;5109434;28;20571;-77
2022/01/23 01:43:00;;;;;;;30.85;14.02;;;;;;;;;;5109228;28;20052;-78
2022/01/23 01:45:28;;;;;;;28.20;13.73;;;;;;;;;;5086729;27;20094;-77
2022/01/23 01:47:56;;;;;;;30.25;13.90;;;;;;;;;;5092292;28;20048;-77
2022/01/23 01:50:23;;;;;;;30.20;14.13;;;;;;;;;;5102164;28;20074;-77
2022/01/23 01:52:49;;;;;;;28.00;14.75;;;;;;;;;;5109971;28;20052;-77
2022/01/23 01:55:22;;;;;;;27.10;13.38;;;;;;;;;;5109430;28;20056;-77
2022/01/23 01:57:55;;;;;;;29.27;14.45;;;;;;;;;;5091485;28;20572;-77
2022/01/23 02:08:29;;;;;;;26.67;12.93;;;;;;;;;;5103423;28;20075;-77
2022/01/23 02:11:02;;;;;;;26.60;13.82;;;;;;;;;;5108827;28;20487;-78
2022/01/23 02:13:36;;;;;;;26.27;13.15;;;;;;;;;;5109575;28;20076;-78
2022/01/23 02:56:56;;;;;;;34.25;16.15;;;;;;;;;;5108617;27;20172;-77
2022/01/23 02:59:26;;;;;;;31.10;14.77;;;;;;;;;;5091186;28;20113;-77
2022/01/23 03:02:27;;;;;;;32.10;15.88;;;;;;;;;;5091459;28;20064;-77
2022/01/23 03:04:48;;;;;;;34.72;15.95;;;;;;;;;;5104154;28;20479;-77
2022/01/23 03:15:30;;;;;;;37.53;16.33;;;;;;;;;;5105512;28;20036;-77
2022/01/23 03:26:16;;;;;;;40.25;16.80;;;;;;;;;;5099601;27;20083;-77
2022/01/23 03:31:31;;;;;;;41.17;16.33;;;;;;;;;;5109529;28;20086;-77
2022/01/23 03:33:58;;;;;;;35.30;16.48;;;;;;;;;;5089352;28;20074;-77
2022/01/23 03:36:24;;;;;;;40.20;18.50;;;;;;;;;;5089501;28;20052;-77
2022/01/23 03:38:51;;;;;;;40.63;17.58;;;;;;;;;;5090927;28;20904;-77
2022/01/23 03:41:18;;;;;;;39.17;18.23;;;;;;;;;;5089542;28;20053;-77
2022/01/23 03:43:44;;;;;;;41.17;18.50;;;;;;;;;;5104200;27;20053;-77
2022/01/23 03:51:42;;;;;;;37.65;17.58;;;;;;;;;;5107901;28;20054;-77
2022/01/23 03:54:08;;;;;;;44.58;19.02;;;;;;;;;;5089308;28;20075;-77
2022/01/23 03:56:34;;;;;;;39.58;17.50;;;;;;;;;;5088991;28;20087;-77
2022/01/23 03:59:01;;;;;;;39.83;18.27;;;;;;;;;;5107948;28;20566;-77
2022/01/23 04:01:27;;;;;;;42.67;18.15;;;;;;;;;;5106891;28;20140;-77
2022/01/23 04:03:57;;;;;;;40.70;18.38;;;;;;;;;;5090053;28;20082;-77
2022/01/23 04:06:23;;;;;;;44.17;16.95;;;;;;;;;;5108085;28;20060;-77
2022/01/23 04:08:50;;;;;;;43.00;19.27;;;;;;;;;;5096276;28;20607;-77
2022/01/23 04:11:17;;;;;;;43.35;19.38;;;;;;;;;;5107340;28;20573;-77
2022/01/23 04:13:49;;;;;;;41.55;19.00;;;;;;;;;;5108075;28;20052;-77
2022/01/23 04:31:43;;;;;;;41.03;18.10;;;;;;;;;;5099315;28;20106;-77
2022/01/23 04:32:47;;;;;;;38.88;17.63;;;;;;;;;;5106965;28;20106;-77
2022/01/23 04:46:39;;;;;;;36.60;17.30;;;;;;;;;;5103673;27;20625;-77
2022/01/23 04:59:32;;;;;;;38.33;15.82;;;;;;;;;;5110866;28;20056;-77
2022/01/23 04:59:55;;;;;;;33.78;15.15;;;;;;;;;;5110910;28;20056;-77
2022/01/23 05:05:26;;;;;;;35.67;15.90;;;;;;;;;;5061420;28;20077;-77
2022/01/23 05:07:55;;;;;;;40.60;15.43;;;;;;;;;;5098261;28;20103;-77
2022/01/23 05:10:21;;;;;;;39.03;16.23;;;;;;;;;;5093131;28;20580;-77
2022/01/23 05:12:47;;;;;;;40.85;16.48;;;;;;;;;;5092004;28;20110;-77
2022/01/23 05:15:14;;;;;;;37.08;15.57;;;;;;;;;;5090481;28;20056;-77
2022/01/23 05:17:40;;;;;;;39.10;16.10;;;;;;;;;;5107041;28;20483;-77
2022/01/23 05:20:07;;;;;;;35.28;15.85;;;;;;;;;;5109803;28;20119;-77
2022/01/23 05:22:42;;;;;;;41.53;16.10;;;;;;;;;;5109810;28;20072;-77
2022/01/23 05:27:40;;;;;;;33.33;15.35;;;;;;;;;;5110863;27;20083;-77
2022/01/23 05:30:07;;;;;;;35.20;15.43;;;;;;;;;;5110418;28;20148;-77
2022/01/23 05:32:40;;;;;;;39.03;15.23;;;;;;;;;;5111380;28;20129;-77
2022/01/23 05:35:08;;;;;;;38.85;16.23;;;;;;;;;;5092823;28;20565;-77
2022/01/23 05:37:35;;;;;;;35.70;16.55;;;;;;;;;;5111019;28;20867;-77
2022/01/23 05:40:02;;;;;;;34.80;15.95;;;;;;;;;;5094078;28;20047;-77
2022/01/23 05:42:28;;;;;;;37.08;15.27;;;;;;;;;;5110203;28;20568;-77
2022/01/23 05:44:55;;;;;;;35.53;16.17;;;;;;;;;;5109950;27;20137;-77
2022/01/23 05:47:21;;;;;;;35.40;15.15;;;;;;;;;;5092243;28;20052;-77
2022/01/23 05:49:47;;;;;;;39.85;16.40;;;;;;;;;;5091787;28;20111;-77
2022/01/23 05:52:15;;;;;;;41.83;17.67;;;;;;;;;;5109808;28;20078;-77
2022/01/23 05:54:41;;;;;;;40.35;15.70;;;;;;;;;;5110672;28;20056;-77
2022/01/23 05:57:08;;;;;;;43.00;17.30;;;;;;;;;;5090625;28;20090;-77
2022/01/23 05:59:34;;;;;;;32.63;15.43;;;;;;;;;;5108639;28;20083;-77
2022/01/23 06:02:00;;;;;;;35.13;16.02;;;;;;;;;;5090173;28;20076;-77
2022/01/23 06:04:27;;;;;;;35.88;15.52;;;;;;;;;;5116151;27;20052;-77
2022/01/23 06:06:55;;;;;;;39.83;16.88;;;;;;;;;;5108399;27;20052;-77
2022/01/23 06:09:22;;;;;;;35.05;15.40;;;;;;;;;;5086053;28;21012;-77
2022/01/23 06:11:49;;;;;;;29.05;13.95;;;;;;;;;;5101049;28;20129;-77
2022/01/23 06:14:15;;;;;;;34.38;14.57;;;;;;;;;;5090342;28;20087;-77
2022/01/23 06:16:41;;;;;;;34.88;14.45;;;;;;;;;;5101412;28;20852;-77
2022/01/23 06:19:08;;;;;;;36.53;14.52;;;;;;;;;;5106680;28;20055;-77
2022/01/23 06:21:34;;;;;;;32.63;13.60;;;;;;;;;;5109375;28;20075;-77
2022/01/23 06:24:21;;;;;;;30.55;13.75;;;;;;;;;;5108716;28;20082;-77
2022/01/23 06:26:49;;;;;;;35.33;13.52;;;;;;;;;;5085353;28;20106;-77
2022/01/23 06:29:16;;;;;;;30.50;13.20;;;;;;;;;;5089795;28;20056;-77
2022/01/23 06:31:46;;;;;;;26.13;12.68;;;;;;;;;;5108530;28;20052;-77
2022/01/23 06:34:13;;;;;;;32.60;13.43;;;;;;;;;;5081615;28;20584;-77
2022/01/23 06:36:40;;;;;;;34.05;13.05;;;;;;;;;;5108167;27;20055;-77
2022/01/23 06:39:08;;;;;;;26.52;12.60;;;;;;;;;;5090003;28;20059;-77
2022/01/23 06:41:34;;;;;;;33.70;13.68;;;;;;;;;;5116302;27;20056;-77
2022/01/23 06:44:01;;;;;;;29.30;12.98;;;;;;;;;;5108217;28;20063;-77
2022/01/23 06:46:27;;;;;;;30.58;13.38;;;;;;;;;;5108241;28;20048;-77
2022/01/23 06:48:54;;;;;;;33.80;13.30;;;;;;;;;;5107844;28;20084;-77
2022/01/23 06:51:20;;;;;;;32.00;14.07;;;;;;;;;;5104604;28;20063;-77
2022/01/23 06:53:47;;;;;;;32.05;14.48;;;;;;;;;;5099743;28;20526;-77
2022/01/23 06:56:14;;;;;;;35.75;15.00;;;;;;;;;;5089171;27;20105;-77
2022/01/23 06:58:40;;;;;;;34.88;14.30;;;;;;;;;;5108530;27;20101;-77
2022/01/23 07:01:07;;;;;;;35.58;14.65;;;;;;;;;;5099849;28;20055;-77
2022/01/23 07:03:34;;;;;;;31.80;13.32;;;;;;;;;;5090211;28;20054;-77
2022/01/23 07:06:01;;;;;;;34.80;13.85;;;;;;;;;;5108003;28;20093;-77
2022/01/23 07:08:27;;;;;;;29.85;14.10;;;;;;;;;;5080152;28;20858;-77
2022/01/23 07:10:54;;;;;;;31.85;14.20;;;;;;;;;;5089006;28;20052;-77
2022/01/23 07:13:20;;;;;;;29.98;14.20;;;;;;;;;;5108833;28;20121;-77
2022/01/23 07:15:47;;;;;;;29.52;13.85;;;;;;;;;;5105151;28;20052;-77
2022/01/23 07:18:15;;;;;;;27.88;13.30;;;;;;;;;;5088996;28;20056;-77
2022/01/23 07:20:42;;;;;;;33.83;14.65;;;;;;;;;;5088907;28;20083;-77
2022/01/23 07:23:08;;;;;;;29.85;12.85;;;;;;;;;;5088251;28;20134;-77
2022/01/23 07:25:35;;;;;;;32.60;13.63;;;;;;;;;;5099330;28;20534;-77
2022/01/23 07:28:03;;;;;;;32.55;13.65;;;;;;;;;;5089915;28;20083;-77
2022/01/23 07:30:36;;;;;;;35.08;14.60;;;;;;;;;;5088640;28;20538;-77
2022/01/23 07:33:03;;;;;;;33.63;14.32;;;;;;;;;;5107291;28;20105;-77
2022/01/23 07:35:29;;;;;;;35.47;14.73;;;;;;;;;;5107079;27;20132;-77
2022/01/23 07:37:56;;;;;;;31.42;14.20;;;;;;;;;;5106701;28;20052;-77
2022/01/23 07:40:22;;;;;;;35.08;14.75;;;;;;;;;;5104692;27;20141;-77
2022/01/23 07:42:49;;;;;;;34.15;15.38;;;;;;;;;;5107270;28;20079;-77
2022/01/23 07:45:15;;;;;;;34.85;14.43;;;;;;;;;;5103991;28;20139;-78
2022/01/23 07:47:42;;;;;;;34.28;16.05;;;;;;;;;;5088296;28;20090;-77
2022/01/23 07:50:09;;;;;;;38.00;14.63;;;;;;;;;;5108608;27;20101;-76
2022/01/23 07:52:36;;;;;;;31.10;13.68;;;;;;;;;;5108818;27;20056;-77
2022/01/23 07:55:06;;;;;;;35.78;15.85;;;;;;;;;;5104622;27;20079;-77
2022/01/23 07:57:32;;;;;;;34.72;15.85;;;;;;;;;;5087000;28;20106;-77
2022/01/23 07:59:59;;;;;;;35.38;17.38;;;;;;;;;;5104548;28;20056;-77
2022/01/23 08:02:26;;;;;;;39.47;17.75;;;;;;;;;;5087232;28;20075;-77
2022/01/23 08:04:52;;;;;;;33.75;15.73;;;;;;;;;;5106019;28;20056;-77
2022/01/23 08:07:31;;;;;;;37.17;14.77;;;;;;;;;;5101891;28;20056;-77
2022/01/23 08:09:58;;;;;;;40.33;15.48;;;;;;;;;;5107537;27;20062;-77
2022/01/23 08:12:25;;;;;;;35.55;14.30;;;;;;;;;;5113425;27;20160;-77
2022/01/23 08:14:52;;;;;;;37.17;14.88;;;;;;;;;;5081445;28;20878;-76
2022/01/23 08:17:19;;;;;;;35.97;14.23;;;;;;;;;;5106495;27;20076;-76
2022/01/23 08:19:46;;;;;;;39.80;14.95;;;;;;;;;;5093503;28;20102;-76
2022/01/23 08:22:12;;;;;;;36.00;15.13;;;;;;;;;;5105277;28;20052;-76
2022/01/23 08:24:39;;;;;;;38.30;15.15;;;;;;;;;;5086748;28;20110;-76
2022/01/23 08:27:05;;;;;;;41.58;14.77;;;;;;;;;;5082058;28;20916;-77
2022/01/23 08:29:32;;;;;;;34.13;14.70;;;;;;;;;;5086925;27;20123;-76
2022/01/23 08:31:58;;;;;;;41.03;14.55;;;;;;;;;;5079282;28;20044;-76
2022/01/23 08:34:24;;;;;;;30.25;13.23;;;;;;;;;;5080907;28;20048;-76
2022/01/23 08:36:50;;;;;;;34.40;13.23;;;;;;;;;;5103800;27;20097;-76
2022/01/23 08:39:21;;;;;;;31.08;12.40;;;;;;;;;;5085595;28;20144;-76
2022/01/23 08:41:51;;;;;;;29.15;13.05;;;;;;;;;;5112570;27;20052;-76
2022/01/23 08:44:18;;;;;;;32.55;12.85;;;;;;;;;;5089092;28;20564;-76
2022/01/23 08:46:45;;;;;;;26.75;11.55;;;;;;;;;;5087998;28;20055;-76
2022/01/23 08:49:11;;;;;;;28.38;12.05;;;;;;;;;;5103777;27;20511;-76
2022/01/23 08:51:38;;;;;;;26.10;12.20;;;;;;;;;;5099529;27;20068;-76
2022/01/23 08:54:05;;;;;;;28.98;12.43;;;;;;;;;;5100959;27;20083;-76
2022/01/23 08:56:31;;;;;;;29.10;13.05;;;;;;;;;;5088851;28;20473;-76
2022/01/23 08:58:57;;;;;;;32.88;12.68;;;;;;;;;;5081281;27;20499;-76
2022/01/23 09:01:24;;;;;;;33.90;13.80;;;;;;;;;;5107025;27;20078;-76
2022/01/23 09:03:51;;;;;;;28.15;12.77;;;;;;;;;;5088822;28;20079;-76
2022/01/23 09:06:18;;;;;;;32.50;13.73;;;;;;;;;;5079014;28;20056;-76
2022/01/23 09:08:45;;;;;;;29.83;12.90;;;;;;;;;;5089116;28;20080;-76
2022/01/23 09:11:40;;;;;;;32.95;13.00;;;;;;;;;;5087240;27;20054;-77
2022/01/23 09:14:07;;;;;;;30.85;13.02;;;;;;;;;;5104004;27;20052;-76
2022/01/23 09:16:34;;;;;;;30.00;13.55;;;;;;;;;;5102142;27;20059;-77
2022/01/23 09:19:01;;;;;;;44.20;17.95;;;;;;;;;;5087049;28;20052;-76
2022/01/23 09:21:27;;;;;;;36.17;13.65;;;;;;;;;;5111978;27;20052;-76
2022/01/23 09:23:53;;;;;;;33.45;14.75;;;;;;;;;;5111810;27;20079;-76
2022/01/23 09:26:22;;;;;;;36.22;15.18;;;;;;;;;;5087519;27;20056;-76
2022/01/23 09:28:49;;;;;;;30.33;14.52;;;;;;;;;;5111172;27;20051;-76
2022/01/23 09:31:27;;;;;;;34.42;14.60;;;;;;;;;;5115358;27;20174;-76
2022/01/23 09:33:53;;;;;;;33.83;13.82;;;;;;;;;;5108903;28;20558;-76
2022/01/23 09:36:20;;;;;;;32.40;14.02;;;;;;;;;;5107126;28;20141;-76
2022/01/23 09:38:46;;;;;;;35.33;14.98;;;;;;;;;;5084645;28;20052;-76
2022/01/23 09:41:17;;;;;;;29.83;14.25;;;;;;;;;;5105534;27;20052;-76
2022/01/23 09:43:45;;;;;;;30.60;13.50;;;;;;;;;;5109014;27;20129;-77
2022/01/23 09:46:13;;;;;;;31.88;14.75;;;;;;;;;;5110881;27;20052;-76
2022/01/23 09:48:41;;;;;;;34.03;15.98;;;;;;;;;;5116039;27;20602;-77
2022/01/23 09:51:08;;;;;;;39.30;19.83;;;;;;;;;;5111577;27;20048;-76
2022/01/23 09:53:34;;;;;;;40.72;21.85;;;;;;;;;;5093848;27;20075;-77
2022/01/23 09:56:05;;;;;;;38.80;18.00;;;;;;;;;;5101950;27;20559;-77
2022/01/23 09:58:31;;;;;;;36.33;17.25;;;;;;;;;;5109312;27;21066;-77
2022/01/23 10:00:58;;;;;;;32.75;15.02;;;;;;;;;;5112766;27;20082;-77
2022/01/23 10:03:25;;;;;;;32.85;14.77;;;;;;;;;;5087766;27;20056;-77
2022/01/23 10:05:53;;;;;;;26.42;13.50;;;;;;;;;;5081617;28;20075;-77
2022/01/23 10:08:20;;;;;;;29.98;13.38;;;;;;;;;;5090665;28;20569;-77
2022/01/23 10:10:51;;;;;;;25.20;12.88;;;;;;;;;;5085941;28;20563;-77
2022/01/23 10:13:22;;;;;;;23.73;11.60;;;;;;;;;;5114034;27;20149;-76
2022/01/23 10:15:48;;;;;;;27.23;11.60;;;;;;;;;;5090136;27;20080;-77
2022/01/23 10:18:15;;;;;;;26.25;10.27;;;;;;;;;;5087330;28;20180;-76
2022/01/23 10:20:42;;;;;;;20.88;11.38;;;;;;;;;;5103660;27;20052;-76
2022/01/23 10:23:09;;;;;;;21.80;10.55;;;;;;;;;;5089097;28;20133;-76
2022/01/23 10:25:40;;;;;;;24.05;10.48;;;;;;;;;;5100235;27;20052;-76
2022/01/23 10:28:09;;;;;;;20.90;9.82;;;;;;;;;;5091186;28;20087;-77
2022/01/23 10:30:41;;;;;;;19.30;9.20;;;;;;;;;;5087577;27;20072;-76
2022/01/23 10:33:10;;;;;;;18.75;9.60;;;;;;;;;;5089482;28;20130;-76
2022/01/23 10:35:53;;;;;;;21.00;10.25;;;;;;;;;;5090856;28;20106;-76
2022/01/23 10:38:23;;;;;;;20.30;8.90;;;;;;;;;;5084765;28;20080;-76
2022/01/23 10:40:55;;;;;;;21.52;9.30;;;;;;;;;;5097370;27;20101;-76
2022/01/23 10:48:40;;;;;;;21.42;10.10;;;;;;;;;;5107365;27;20086;-76
2022/01/23 10:51:26;;;;;;;21.48;11.63;;;;;;;;;;5107427;28;20576;-77
2022/01/23 10:53:57;;;;;;;16.48;8.60;;;;;;;;;;5088264;28;20083;-76
2022/01/23 10:56:24;;;;;;;19.63;9.70;;;;;;;;;;5090494;28;20052;-76
2022/01/23 10:59:07;;;;;;;19.98;9.95;;;;;;;;;;5090482;28;20101;-77
2022/01/23 11:01:34;;;;;;;16.30;8.68;;;;;;;;;;5088342;28;20052;-77
2022/01/23 11:04:11;;;;;;;15.07;7.30;;;;;;;;;;5090966;27;20125;-77
2022/01/23 11:06:52;;;;;;;16.20;8.23;;;;;;;;;;5087649;28;20501;-76
2022/01/23 11:09:18;;;;;;;16.60;8.07;;;;;;;;;;5106748;28;20056;-77
2022/01/23 11:11:48;;;;;;;16.13;7.90;;;;;;;;;;5090264;28;20048;-77
2022/01/23 11:19:51;;;;;;;29.13;14.15;;;;;;;;;;5107399;27;20052;-76
2022/01/23 11:22:24;;;;;;;42.25;17.25;;;;;;;;;;5086355;28;20117;-76
2022/01/23 11:24:50;;;;;;;27.42;12.40;;;;;;;;;;5105667;28;20059;-77
2022/01/23 11:27:18;;;;;;;28.63;12.30;;;;;;;;;;5107808;28;20052;-77
2022/01/23 11:29:58;;;;;;;43.50;18.52;;;;;;;;;;5108268;27;20453;-77
2022/01/23 11:32:27;;;;;;;41.60;19.40;;;;;;;;;;5088959;28;20052;-77
2022/01/23 11:34:57;;;;;;;36.38;16.70;;;;;;;;;;5090207;28;20105;-77
2022/01/23 11:37:24;;;;;;;23.27;11.23;;;;;;;;;;5088655;28;20109;-77
2022/01/23 11:39:55;;;;;;;27.48;13.10;;;;;;;;;;5091447;27;20079;-77
2022/01/23 11:51:19;;;;;;;19.48;8.48;;;;;;;;;;5106344;27;20058;-77
2022/01/23 11:56:26;;;;;;;18.77;9.18;;;;;;;;;;5098156;28;20048;-76
2022/01/23 11:59:15;;;;;;;15.82;8.43;;;;;;;;;;5085449;28;20051;-76
2022/01/23 12:01:43;;;;;;;17.63;9.13;;;;;;;;;;5075591;28;20572;-77
2022/01/23 12:04:16;;;;;;;17.52;9.23;;;;;;;;;;5088640;27;20122;-76
2022/01/23 12:06:45;;;;;;;21.50;9.90;;;;;;;;;;5086916;27;20052;-76
2022/01/23 12:09:16;;;;;;;19.10;10.52;;;;;;;;;;5104813;28;20107;-77
2022/01/23 12:12:01;;;;;;;15.48;8.48;;;;;;;;;;5083794;28;20056;-77
2022/01/23 12:17:16;;;;;;;14.82;6.85;;;;;;;;;;5071471;28;20110;-77
2022/01/23 12:19:51;;;;;;;15.80;8.38;;;;;;;;;;5088704;28;20052;-77
2022/01/23 12:22:21;;;;;;;20.80;10.00;;;;;;;;;;5093388;28;20075;-77
2022/01/23 12:24:48;;;;;;;16.60;7.70;;;;;;;;;;5088528;27;20052;-77
2022/01/23 12:27:21;;;;;;;13.15;6.80;;;;;;;;;;5088105;28;20090;-77
2022/01/23 12:29:47;;;;;;;12.93;6.13;;;;;;;;;;5088188;28;20102;-77
2022/01/23 12:32:29;;;;;;;15.30;6.80;;;;;;;;;;5107188;27;20098;-77
2022/01/23 12:34:56;;;;;;;14.70;7.60;;;;;;;;;;5085430;28;20605;-77
2022/01/23 12:37:23;;;;;;;10.50;5.35;;;;;;;;;;5109781;27;20572;-76
2022/01/23 12:40:08;;;;;;;10.75;5.13;;;;;;;;;;5089678;28;20079;-77
2022/01/23 12:42:53;;;;;;;10.43;4.88;;;;;;;;;;5086580;28;20056;-77
2022/01/23 12:45:38;;;;;;;12.52;5.95;;;;;;;;;;5104673;27;20588;-76
2022/01/23 12:48:23;;;;;;;13.27;6.22;;;;;;;;;;5106174;27;20055;-77
2022/01/23 12:50:50;;;;;;;27.30;13.98;;;;;;;;;;5089862;27;20488;-77
2022/01/23 12:53:17;;;;;;;19.25;10.02;;;;;;;;;;5091171;27;20497;-76
2022/01/23 12:56:02;;;;;;;13.07;6.50;;;;;;;;;;5089409;27;20088;-76
2022/01/23 12:58:29;;;;;;;13.70;6.05;;;;;;;;;;5121574;27;20086;-76
2022/01/23 13:00:55;;;;;;;13.00;6.68;;;;;;;;;;5118493;27;20102;-76
2022/01/23 13:03:24;;;;;;;13.23;6.20;;;;;;;;;;5095884;28;20075;-76
2022/01/23 13:05:55;;;;;;;12.82;6.22;;;;;;;;;;5108023;27;20044;-76
2022/01/23 13:08:34;;;;;;;10.93;5.78;;;;;;;;;;5091584;27;20102;-76
2022/01/23 13:16:17;;;;;;;14.20;6.55;;;;;;;;;;5110940;27;20083;-76
2022/01/23 13:19:14;;;;;;;13.88;6.40;;;;;;;;;;5113282;27;20107;-76
2022/01/23 13:30:19;;;;;;;11.63;5.47;;;;;;;;;;5081740;28;20060;-76
2022/01/23 13:32:48;;;;;;;11.70;5.90;;;;;;;;;;5102869;28;20121;-76
2022/01/23 13:35:16;;;;;;;10.80;5.50;;;;;;;;;;5091890;28;20131;-76
2022/01/23 13:37:47;;;;;;;11.57;5.60;;;;;;;;;;5105704;28;20110;-76
2022/01/23 13:40:16;;;;;;;11.15;5.60;;;;;;;;;;5099154;28;20056;-76
2022/01/23 13:49:44;;;;;;;12.27;6.30;;;;;;;;;;5002152;28;20129;-76
2022/01/23 14:04:34;;;;;;;21.35;13.05;;;;;;;;;;5119398;27;20052;-76
2022/01/23 14:07:00;;;;;;;22.80;14.00;;;;;;;;;;5114736;27;20079;-76
2022/01/23 14:09:27;;;;;;;15.95;8.35;;;;;;;;;;5110846;27;20135;-76
2022/01/23 14:11:54;;;;;;;17.80;7.57;;;;;;;;;;5098520;28;20090;-76
2022/01/23 14:14:23;;;;;;;19.48;8.63;;;;;;;;;;5088804;27;20052;-76
2022/01/23 14:16:51;;;;;;;14.63;7.18;;;;;;;;;;5105525;27;20098;-76
2022/01/23 14:19:20;;;;;;;13.25;6.35;;;;;;;;;;5089751;27;20052;-76
2022/01/23 14:21:48;;;;;;;14.82;6.15;;;;;;;;;;5094473;27;20083;-76
2022/01/23 14:24:28;;;;;;;14.57;6.68;;;;;;;;;;5086284;27;20419;-76
2022/01/23 14:27:00;;;;;;;15.10;6.80;;;;;;;;;;5088977;28;20129;-76
2022/01/23 14:29:27;;;;;;;13.77;6.43;;;;;;;;;;5088714;28;20060;-76
2022/01/23 14:32:08;;;;;;;13.07;6.63;;;;;;;;;;5095040;28;20059;-76
2022/01/23 14:34:35;;;;;;;13.15;6.72;;;;;;;;;;5089597;28;20106;-76
2022/01/23 14:37:06;;;;;;;13.63;6.85;;;;;;;;;;5091151;28;20083;-76
2022/01/23 14:39:33;;;;;;;15.25;7.15;;;;;;;;;;5090771;28;20055;-76
2022/01/23 14:42:26;;;;;;;14.73;7.50;;;;;;;;;;5110754;27;20623;-76
2022/01/23 14:44:52;;;;;;;16.73;7.20;;;;;;;;;;5100163;27;20079;-76
2022/01/23 14:47:19;;;;;;;14.95;7.03;;;;;;;;;;5105635;27;20110;-76
2022/01/23 14:49:47;;;;;;;13.43;6.43;;;;;;;;;;5107416;28;20056;-76
2022/01/23 14:52:14;;;;;;;14.07;7.15;;;;;;;;;;5091167;28;20477;-76
2022/01/23 14:54:41;;;;;;;19.50;10.30;;;;;;;;;;5090229;28;20586;-76
2022/01/23 14:57:11;;;;;;;19.77;9.88;;;;;;;;;;5107005;28;20085;-76
2022/01/23 14:59:37;;;;;;;18.13;9.13;;;;;;;;;;5087162;27;20056;-76
2022/01/23 15:02:04;;;;;;;18.60;8.73;;;;;;;;;;5104456;27;20071;-76
2022/01/23 15:04:38;;;;;;;17.45;7.30;;;;;;;;;;5100492;27;20052;-76
2022/01/23 15:07:07;;;;;;;15.88;7.13;;;;;;;;;;5092870;27;20052;-76
2022/01/23 15:09:34;;;;;;;19.20;8.27;;;;;;;;;;5106301;27;20056;-76
2022/01/23 15:12:01;;;;;;;17.70;8.65;;;;;;;;;;5088329;28;20055;-76
2022/01/23 15:14:28;;;;;;;17.20;8.07;;;;;;;;;;5105078;27;20863;-76
2022/01/23 15:16:54;;;;;;;13.80;6.53;;;;;;;;;;5088757;27;20092;-76
2022/01/23 15:19:24;;;;;;;14.57;6.97;;;;;;;;;;5086606;28;20553;-76
2022/01/23 15:21:50;;;;;;;14.43;7.38;;;;;;;;;;5078697;27;20558;-76
2022/01/23 15:24:17;;;;;;;17.23;9.15;;;;;;;;;;5090217;28;20078;-76
2022/01/23 15:26:43;;;;;;;17.50;8.63;;;;;;;;;;5086154;28;20056;-76
2022/01/23 15:29:10;;;;;;;14.65;8.02;;;;;;;;;;5111867;27;20149;-76
2022/01/23 15:31:38;;;;;;;16.73;8.07;;;;;;;;;;5119909;27;20079;-76
2022/01/23 15:34:04;;;;;;;14.15;7.15;;;;;;;;;;5109022;27;20062;-76
2022/01/23 15:36:30;;;;;;;14.48;7.05;;;;;;;;;;5107627;27;20226;-76
2022/01/23 15:38:57;;;;;;;17.48;7.13;;;;;;;;;;5086914;28;20487;-76
2022/01/23 15:41:23;;;;;;;20.40;8.30;;;;;;;;;;5107304;28;20117;-76
2022/01/23 15:43:50;;;;;;;14.63;7.03;;;;;;;;;;5089865;28;20137;-76
2022/01/23 15:46:17;;;;;;;16.70;7.95;;;;;;;;;;5092867;27;20052;-76
2022/01/23 15:48:44;;;;;;;15.10;7.32;;;;;;;;;;5098513;28;20135;-76
2022/01/23 15:51:10;;;;;;;19.92;8.07;;;;;;;;;;5103087;28;20095;-76
2022/01/23 15:53:37;;;;;;;22.70;9.65;;;;;;;;;;5086246;28;20052;-75
2022/01/23 15:56:04;;;;;;;18.17;8.57;;;;;;;;;;5088886;28;20121;-76
2022/01/23 15:58:31;;;;;;;23.75;10.88;;;;;;;;;;5089418;28;20145;-76
2022/01/23 16:00:57;;;;;;;21.80;10.30;;;;;;;;;;5087768;28;20153;-76
2022/01/23 16:03:26;;;;;;;15.63;7.43;;;;;;;;;;5106212;28;20127;-76
2022/01/23 16:05:52;;;;;;;16.50;8.13;;;;;;;;;;5103308;27;20549;-76
2022/01/23 16:08:19;;;;;;;17.02;8.68;;;;;;;;;;5089215;28;20127;-76
2022/01/23 16:10:45;;;;;;;16.90;9.18;;;;;;;;;;5084218;28;20060;-76
2022/01/23 16:13:12;;;;;;;16.85;8.23;;;;;;;;;;5101437;28;20408;-76
2022/01/23 16:15:38;;;;;;;18.38;8.77;;;;;;;;;;5086956;28;20048;-76
2022/01/23 16:18:05;;;;;;;19.23;9.25;;;;;;;;;;5087753;28;20086;-76
2022/01/23 16:20:31;;;;;;;29.65;12.02;;;;;;;;;;5089318;28;20206;-76
2022/01/23 16:22:58;;;;;;;51.97;18.55;;;;;;;;;;5089098;28;20244;-76
2022/01/23 16:25:24;;;;;;;31.30;12.60;;;;;;;;;;5106932;27;20087;-76
2022/01/23 16:27:51;;;;;;;29.85;11.23;;;;;;;;;;5102514;28;20578;-76
2022/01/23 16:30:19;;;;;;;25.45;10.73;;;;;;;;;;5108010;27;20245;-76
2022/01/23 16:32:49;;;;;;;25.02;11.23;;;;;;;;;;5088854;28;20509;-76
2022/01/23 16:35:19;;;;;;;22.30;9.88;;;;;;;;;;5103674;27;20053;-76
2022/01/23 16:37:46;;;;;;;20.83;9.82;;;;;;;;;;5092251;28;20572;-76
2022/01/23 16:40:12;;;;;;;20.02;9.30;;;;;;;;;;5092542;28;20157;-76
2022/01/23 16:42:38;;;;;;;23.55;11.20;;;;;;;;;;5110653;28;20555;-76
2022/01/23 16:45:05;;;;;;;21.45;10.45;;;;;;;;;;5105296;27;20052;-76
2022/01/23 16:47:31;;;;;;;24.55;12.07;;;;;;;;;;5091327;28;20083;-76
2022/01/23 16:49:58;;;;;;;26.40;13.38;;;;;;;;;;5109830;28;20083;-76
2022/01/23 16:52:24;;;;;;;24.73;11.52;;;;;;;;;;5109797;28;20563;-76
2022/01/23 16:54:50;;;;;;;21.33;9.68;;;;;;;;;;5108974;28;20581;-76
2022/01/23 16:57:19;;;;;;;22.95;10.15;;;;;;;;;;5080865;28;20053;-76
2022/01/23 16:59:46;;;;;;;21.67;10.50;;;;;;;;;;5088027;28;20605;-76
2022/01/23 17:02:13;;;;;;;20.55;10.30;;;;;;;;;;5102931;28;20052;-76
2022/01/23 17:04:40;;;;;;;23.23;11.20;;;;;;;;;;5090932;28;20062;-76
2022/01/23 17:07:10;;;;;;;23.30;11.75;;;;;;;;;;5108560;27;20048;-76
2022/01/23 17:09:37;;;;;;;20.42;9.73;;;;;;;;;;5111258;27;20465;-76
2022/01/23 17:12:07;;;;;;;20.40;9.32;;;;;;;;;;5109559;28;20098;-76
2022/01/23 17:14:34;;;;;;;22.15;9.63;;;;;;;;;;5109187;28;20056;-76
2022/01/23 17:17:00;;;;;;;20.73;10.38;;;;;;;;;;5102044;27;20114;-76
2022/01/23 17:19:27;;;;;;;21.27;8.90;;;;;;;;;;5084344;28;20056;-76
2022/01/23 17:21:54;;;;;;;22.48;10.05;;;;;;;;;;5109355;28;20564;-76
2022/01/23 17:24:24;;;;;;;21.80;10.15;;;;;;;;;;5091845;28;20143;-76
2022/01/23 17:26:51;;;;;;;21.70;10.15;;;;;;;;;;5108229;27;20526;-76
2022/01/23 17:29:17;;;;;;;27.58;13.40;;;;;;;;;;5110034;28;20132;-79
2022/01/23 17:31:44;;;;;;;28.98;14.10;;;;;;;;;;5108371;28;20059;-77
2022/01/23 17:34:11;;;;;;;26.15;13.63;;;;;;;;;;5089616;27;20052;-77
2022/01/23 17:36:38;;;;;;;24.45;12.45;;;;;;;;;;5085087;28;20842;-75
2022/01/23 17:39:04;;;;;;;25.75;12.43;;;;;;;;;;5091253;28;20056;-76
2022/01/23 17:41:31;;;;;;;25.60;12.30;;;;;;;;;;5091698;28;20510;-77
2022/01/23 17:43:57;;;;;;;22.17;11.63;;;;;;;;;;5109800;28;20113;-76
2022/01/23 17:46:26;;;;;;;27.70;13.48;;;;;;;;;;5108821;27;20082;-76
2022/01/23 17:49:23;;;;;;;26.88;12.25;;;;;;;;;;5107940;28;20051;-76
2022/01/23 17:51:39;;;;;;;23.95;12.15;;;;;;;;;;5107588;28;20915;-77
2022/01/23 17:54:05;;;;;;;23.33;11.32;;;;;;;;;;5093865;28;20608;-76
2022/01/23 17:56:32;;;;;;;23.15;10.52;;;;;;;;;;5089885;28;20503;-77
2022/01/23 17:58:59;;;;;;;23.98;10.85;;;;;;;;;;5092209;28;20427;-77